Pelion, South Carolina
Current Conditions -  °F | °C
As of 3:56 PM on Tuesday 25 Nov 2014 (Local Time) from KCAE Reporting Station
Light Rain Light Rain  
Wind Chill: 59°   Ceiling: 10000
Heat Index: 59°   Visibility: 10mi
Dew Point: 55°   Wind: 6mph
Humidity: 87%   Direction: 270°W
Pressure: 30.02"   Gusts: NA
Location:  33.76°N, 81.24°W
Report Text: KCAE 252056Z 27005KT 10SM -RA OVC100 15/13 A3002 RMK AO2 SLP163 P0000 60001 T01500128 53004
Loading
Personal Weather Stations






























Interactive Weather Map New forecast layout! Learn more

10-Day Weather Forecast

Advertisements
Track Severe Weather on mobile